Mount Olive, Arkansas
Current Conditions -  °F | °C
As of 11:53 PM on Wednesday 28 Jan 2015 (Local Time) from KLLQ Reporting Station
Light Rain Light Rain  
Wind Chill: 60°   Ceiling: Unl
Heat Index: 60°   Visibility: 10mi
Dew Point: 41°   Wind: 12mph
Humidity: 49%   Direction: 210°SSW
Pressure: 30.09"   Gusts: 20mph
Location:  33.37°N, 92.1129°W
Report Text: KLLQ 290553Z AUTO 21010G17KT 10SM -RA CLR 16/05 A3009 RMK AO2 RAB23 SLP189 P0000 60000 T01560050 10161 20139 401890022 53001
Loading
Personal Weather Stations






























Interactive Weather Map New forecast layout! Learn more

10-Day Weather Forecast

Advertisements
Track Severe Weather on mobile